createdAt,value
2022-11-16T00:00:11.443Z,99664.41
2022-11-16T00:02:39.909Z,99659.28
2022-11-16T00:05:08.434Z,99667.06
2022-11-16T00:07:36.879Z,99658.06
2022-11-16T00:10:06.094Z,99665.97
2022-11-16T00:12:34.633Z,99669.72
2022-11-16T00:15:04.333Z,99665.72
2022-11-16T00:17:33.166Z,99673.84
2022-11-16T00:20:01.492Z,99684.56
2022-11-16T00:22:29.973Z,99669.13
2022-11-16T00:24:58.452Z,99675.69
2022-11-16T00:27:26.818Z,99678.56
2022-11-16T00:29:55.267Z,99681.97
2022-11-16T00:32:23.665Z,99677.72
2022-11-16T00:34:52.083Z,99674.06
2022-11-16T00:37:20.411Z,99670.28
2022-11-16T00:39:48.773Z,99671.38
2022-11-16T00:42:17.371Z,99666.47
2022-11-16T00:44:45.804Z,99662.44
2022-11-16T00:47:14.259Z,99643.94
2022-11-16T00:49:42.706Z,99626.75
2022-11-16T00:52:11.141Z,99635.72
2022-11-16T00:54:39.686Z,99668.25
2022-11-16T00:57:08.163Z,99671.53
2022-11-16T00:59:36.666Z,99662.94
2022-11-16T01:02:05.020Z,99640.09
2022-11-16T01:04:33.491Z,99648.44
2022-11-16T01:07:02.017Z,99653.97
2022-11-16T01:09:32.615Z,99650.13
2022-11-16T01:12:10.276Z,99652.94
2022-11-16T01:14:46.379Z,99639.16
2022-11-16T01:17:15.382Z,99621.50
2022-11-16T01:19:43.772Z,99641.19
2022-11-16T01:22:12.211Z,99637.03
2022-11-16T01:24:40.718Z,99633.06
2022-11-16T01:27:09.120Z,99631.28
2022-11-16T01:29:38.628Z,99625.41
2022-11-16T01:32:07.061Z,99634.47
2022-11-16T01:34:36.734Z,99628.94
2022-11-16T01:37:06.122Z,99627.53
2022-11-16T01:39:34.770Z,99617.38
2022-11-16T01:42:03.808Z,99620.81
2022-11-16T01:44:32.150Z,99617.28
2022-11-16T01:47:08.356Z,99626.78
2022-11-16T01:49:41.972Z,99619.63
2022-11-16T01:52:16.438Z,99616.19
2022-11-16T01:54:48.029Z,99624.09
2022-11-16T01:57:23.301Z,99618.31
2022-11-16T01:59:55.281Z,99616.88
2022-11-16T02:02:23.664Z,99622.66
2022-11-16T02:04:53.671Z,99611.00
2022-11-16T02:07:27.949Z,99607.38
2022-11-16T02:10:37.386Z,99601.97
2022-11-16T02:13:51.518Z,99601.50
2022-11-16T02:16:50.941Z,99597.38
2022-11-16T02:19:34.616Z,99609.88
2022-11-16T02:22:18.289Z,99603.38
2022-11-16T02:25:21.015Z,99606.44
2022-11-16T02:28:11.306Z,99593.81
2022-11-16T02:30:45.286Z,99594.66
2022-11-16T02:33:20.744Z,99589.47
2022-11-16T02:35:56.708Z,99591.00
2022-11-16T02:38:32.683Z,99592.19
2022-11-16T02:41:21.466Z,99596.91
2022-11-16T02:43:58.015Z,99595.25
2022-11-16T02:46:31.141Z,99590.56
2022-11-16T02:49:03.085Z,99603.16
2022-11-16T02:51:34.896Z,99602.34
2022-11-16T02:54:12.947Z,99615.00
2022-11-16T02:56:53.420Z,99613.84
2022-11-16T02:59:24.113Z,99616.44
2022-11-16T03:02:14.360Z,99612.41
2022-11-16T03:04:48.347Z,99609.03
2022-11-16T03:07:21.787Z,99615.56
2022-11-16T03:09:52.057Z,99606.66
2022-11-16T03:12:24.834Z,99614.81
2022-11-16T03:15:00.970Z,99629.25
2022-11-16T03:17:34.005Z,99626.78
2022-11-16T03:20:09.115Z,99634.81
2022-11-16T03:22:44.096Z,99635.16
2022-11-16T03:25:16.524Z,99631.28
2022-11-16T03:27:57.105Z,99636.91
2022-11-16T03:30:30.728Z,99638.81
2022-11-16T03:33:36.525Z,99642.22
2022-11-16T03:36:15.366Z,99640.44
2022-11-16T03:38:46.351Z,99638.56
2022-11-16T03:41:15.307Z,99646.91
2022-11-16T03:43:45.064Z,99645.38
2022-11-16T03:46:16.272Z,99660.66
2022-11-16T03:48:44.795Z,99651.00
2022-11-16T03:51:13.671Z,99652.00
2022-11-16T03:53:43.054Z,99665.63
2022-11-16T03:56:11.523Z,99667.78
2022-11-16T03:58:40.939Z,99670.34
2022-11-16T04:01:09.408Z,99673.59
2022-11-16T04:03:37.947Z,99672.91
2022-11-16T04:06:25.203Z,99673.91
2022-11-16T04:09:28.933Z,99671.53
2022-11-16T04:12:15.913Z,99678.13
2022-11-16T04:15:03.237Z,99682.25
2022-11-16T04:17:50.043Z,99679.47
2022-11-16T04:20:36.985Z,99662.13
2022-11-16T04:23:34.775Z,99675.34
2022-11-16T04:26:03.331Z,99668.69
2022-11-16T04:28:35.073Z,99673.66
2022-11-16T04:31:23.646Z,99677.84
2022-11-16T04:34:11.490Z,99668.31
2022-11-16T04:36:58.615Z,99677.53
2022-11-16T04:39:26.970Z,99688.97
2022-11-16T04:42:14.393Z,99687.16
2022-11-16T04:45:01.219Z,99689.19
2022-11-16T04:47:29.638Z,99695.28
2022-11-16T04:49:57.973Z,99711.97
2022-11-16T04:52:26.443Z,99693.78
2022-11-16T04:54:55.022Z,99701.22
2022-11-16T04:57:23.417Z,99696.88
2022-11-16T04:59:51.827Z,99704.97
2022-11-16T05:02:20.561Z,99718.72
2022-11-16T05:04:48.991Z,99711.44
2022-11-16T05:07:18.497Z,99708.66
2022-11-16T05:09:48.889Z,99700.91
2022-11-16T05:12:21.256Z,99701.06
2022-11-16T05:14:50.113Z,99695.16
2022-11-16T05:17:19.584Z,99698.16
2022-11-16T05:20:06.746Z,99706.41
2022-11-16T05:22:36.061Z,99709.75
2022-11-16T05:25:05.529Z,99695.75
2022-11-16T05:27:33.998Z,99698.31
2022-11-16T05:30:02.511Z,99697.41
2022-11-16T05:32:30.922Z,99695.81
2022-11-16T05:34:59.282Z,99698.53
2022-11-16T05:37:29.131Z,99692.97
2022-11-16T05:39:57.512Z,99696.78
2022-11-16T05:42:25.971Z,99709.31
2022-11-16T05:44:54.375Z,99705.53
2022-11-16T05:47:22.783Z,99708.34
2022-11-16T05:49:51.217Z,99718.78
2022-11-16T05:52:19.661Z,99720.78
2022-11-16T05:54:47.974Z,99726.81
2022-11-16T05:57:17.492Z,99720.78
2022-11-16T05:59:45.985Z,99725.00
2022-11-16T06:02:14.492Z,99724.41
2022-11-16T06:04:42.890Z,99731.63
2022-11-16T06:07:11.300Z,99730.13
2022-11-16T06:09:39.777Z,99732.00
2022-11-16T06:12:09.174Z,99742.53
2022-11-16T06:14:37.567Z,99734.88
2022-11-16T06:17:06.037Z,99736.19
2022-11-16T06:19:34.811Z,99734.59
2022-11-16T06:22:03.202Z,99738.38
2022-11-16T06:24:31.782Z,99734.53
2022-11-16T06:27:01.172Z,99739.72
2022-11-16T06:29:29.604Z,99749.72
2022-11-16T06:31:57.931Z,99749.28
2022-11-16T06:34:26.414Z,99758.25
2022-11-16T06:36:54.799Z,99754.41
2022-11-16T06:39:23.125Z,99750.72
2022-11-16T06:41:51.594Z,99764.00
2022-11-16T06:44:19.986Z,99759.44
2022-11-16T06:46:48.398Z,99760.94
2022-11-16T06:49:16.817Z,99759.91
2022-11-16T06:51:45.423Z,99767.28
2022-11-16T06:54:14.821Z,99774.94
2022-11-16T06:56:43.233Z,99772.03
2022-11-16T06:59:12.724Z,99772.69
2022-11-16T07:01:42.928Z,99768.13
2022-11-16T07:04:12.088Z,99767.72
2022-11-16T07:06:41.643Z,99766.69
2022-11-16T07:09:10.119Z,99766.53
2022-11-16T07:11:38.536Z,99777.75
2022-11-16T07:14:07.919Z,99791.44
2022-11-16T07:16:36.496Z,99791.47
2022-11-16T07:19:06.172Z,99786.06
2022-11-16T07:21:34.549Z,99789.41
2022-11-16T07:24:04.361Z,99785.03
2022-11-16T07:26:34.865Z,99790.47
2022-11-16T07:29:04.392Z,99792.31
2022-11-16T07:31:32.866Z,99801.84
2022-11-16T07:34:01.344Z,99802.88
2022-11-16T07:36:29.783Z,99807.00
2022-11-16T07:38:58.363Z,99814.66
2022-11-16T07:41:26.962Z,99812.81
2022-11-16T07:43:56.749Z,99813.78
2022-11-16T07:49:15.713Z,99815.69
2022-11-16T07:51:45.625Z,99814.31
2022-11-16T07:54:14.810Z,99828.19
2022-11-16T07:56:43.377Z,99823.81
2022-11-16T07:59:11.875Z,99827.53
2022-11-16T08:01:40.419Z,99827.78
2022-11-16T08:04:08.812Z,99828.41
2022-11-16T08:06:37.204Z,99826.50
2022-11-16T08:09:05.648Z,99836.88
2022-11-16T08:11:34.256Z,99831.91
2022-11-16T08:14:02.699Z,99835.44
2022-11-16T08:16:33.241Z,99838.56
2022-11-16T08:19:02.346Z,99838.72
2022-11-16T08:21:30.812Z,99833.31
2022-11-16T08:23:59.369Z,99831.28
2022-11-16T08:26:28.930Z,99834.78
2022-11-16T08:28:57.628Z,99838.91
2022-11-16T08:31:28.946Z,99830.81
2022-11-16T08:34:00.269Z,99828.56
2022-11-16T08:36:28.764Z,99833.53
2022-11-16T08:38:57.351Z,99832.28
2022-11-16T08:41:25.740Z,99830.59
2022-11-16T08:43:54.461Z,99831.03
2022-11-16T08:46:22.918Z,99842.03
2022-11-16T08:48:55.861Z,99836.06
2022-11-16T08:51:25.064Z,99843.13
2022-11-16T08:53:58.307Z,99851.19
2022-11-16T08:56:29.770Z,99850.34
2022-11-16T08:58:59.645Z,99852.19
2022-11-16T09:01:30.153Z,99845.72
2022-11-16T09:03:59.700Z,99858.16
2022-11-16T09:06:28.526Z,99849.69
2022-11-16T09:08:57.564Z,99848.44
2022-11-16T09:11:26.166Z,99852.97
2022-11-16T09:13:55.448Z,99851.94
2022-11-16T09:16:24.717Z,99856.09
2022-11-16T09:18:53.845Z,99852.34
2022-11-16T09:21:30.170Z,99856.31
2022-11-16T09:23:58.595Z,99853.81
2022-11-16T09:26:27.381Z,99861.91
2022-11-16T09:29:00.684Z,99859.75
2022-11-16T09:31:32.714Z,99853.44
2022-11-16T09:34:02.974Z,99857.78
2022-11-16T09:36:31.670Z,99862.16
2022-11-16T09:42:01.273Z,99860.06
2022-11-16T09:44:58.200Z,99862.03
2022-11-16T09:47:50.416Z,99851.75
2022-11-16T09:53:23.137Z,99865.09
2022-11-16T09:56:00.694Z,99865.25
2022-11-16T09:58:43.926Z,99864.03
2022-11-16T10:01:31.254Z,99868.69
2022-11-16T10:04:24.651Z,99864.97
2022-11-16T10:07:02.718Z,99861.31
2022-11-16T10:09:31.264Z,99866.88
2022-11-16T10:12:02.752Z,99872.00
2022-11-16T10:14:57.605Z,99871.75
2022-11-16T10:17:32.000Z,99869.00
2022-11-16T10:20:34.153Z,99868.19
2022-11-16T10:23:22.470Z,99877.81
2022-11-16T10:26:01.765Z,99872.31
2022-11-16T10:28:53.250Z,99870.50
2022-11-16T10:31:45.996Z,99865.81
2022-11-16T10:34:22.753Z,99869.84
2022-11-16T10:36:54.919Z,99873.06
2022-11-16T10:39:25.037Z,99877.16
2022-11-16T10:41:53.661Z,99868.63
2022-11-16T10:44:32.440Z,99867.13
2022-11-16T10:47:05.889Z,99871.88
2022-11-16T10:49:54.229Z,99872.50
2022-11-16T10:52:25.201Z,99858.75
2022-11-16T10:54:54.953Z,99863.25
2022-11-16T10:57:26.391Z,99861.31
2022-11-16T10:59:55.593Z,99862.84
2022-11-16T11:02:36.936Z,99868.59
2022-11-16T11:05:23.139Z,99856.34
2022-11-16T11:08:05.274Z,99858.47
2022-11-16T11:10:37.130Z,99848.06
2022-11-16T11:13:05.972Z,99860.66
2022-11-16T11:15:34.558Z,99849.69
2022-11-16T11:18:23.267Z,99851.06
2022-11-16T11:20:57.712Z,99853.44
2022-11-16T11:23:27.793Z,99853.53
2022-11-16T11:26:00.583Z,99849.28
2022-11-16T11:28:35.312Z,99851.59
2022-11-16T11:31:05.853Z,99845.00
2022-11-16T11:34:20.932Z,99841.31
2022-11-16T11:37:01.356Z,99843.81
2022-11-16T11:42:23.277Z,99836.22
2022-11-16T11:45:09.072Z,99839.84
2022-11-16T11:48:01.680Z,99830.56
2022-11-16T11:50:45.810Z,99827.13
2022-11-16T11:53:16.894Z,99822.44
2022-11-16T11:55:45.330Z,99822.69
2022-11-16T11:58:18.131Z,99817.50
2022-11-16T12:00:46.478Z,99813.53
2022-11-16T12:03:48.923Z,99812.16
2022-11-16T12:06:38.748Z,99807.72
2022-11-16T12:09:23.915Z,99812.78
2022-11-16T12:12:18.619Z,99806.38
2022-11-16T12:14:53.307Z,99796.28
2022-11-16T12:17:50.161Z,99784.38
2022-11-16T12:20:42.376Z,99789.88
2022-11-16T12:23:22.999Z,99790.31
2022-11-16T12:26:29.020Z,99788.09
2022-11-16T12:29:06.399Z,99781.66
2022-11-16T12:31:53.778Z,99781.09
2022-11-16T12:34:41.539Z,99783.16
2022-11-16T12:37:42.422Z,99769.03
2022-11-16T12:40:27.551Z,99763.16
2022-11-16T12:43:19.230Z,99765.63
2022-11-16T12:46:01.301Z,99754.47
2022-11-16T12:48:39.949Z,99754.38
2022-11-16T12:51:15.260Z,99752.44
2022-11-16T12:54:16.183Z,99741.59
2022-11-16T12:57:16.109Z,99754.75
2022-11-16T13:00:12.457Z,99741.28
2022-11-16T13:03:02.372Z,99742.88
2022-11-16T13:05:36.830Z,99738.56
2022-11-16T13:08:30.543Z,99740.25
2022-11-16T13:11:15.035Z,99741.03
2022-11-16T13:13:51.360Z,99740.13
2022-11-16T13:16:24.094Z,99742.03
2022-11-16T13:18:54.580Z,99738.53
2022-11-16T13:21:49.551Z,99726.66
2022-11-16T13:24:27.047Z,99722.50
2022-11-16T13:27:01.314Z,99718.84
2022-11-16T13:29:39.680Z,99721.31
2022-11-16T13:32:24.765Z,99734.50
2022-11-16T13:34:54.113Z,99725.97
2022-11-16T13:37:42.304Z,99727.00
2022-11-16T13:40:27.195Z,99728.56
2022-11-16T13:43:11.509Z,99724.78
2022-11-16T13:45:50.739Z,99725.97
2022-11-16T13:48:35.786Z,99726.75
2022-11-16T13:51:07.882Z,99724.66
2022-11-16T13:56:48.707Z,99716.47
2022-11-16T13:59:24.427Z,99725.91
2022-11-16T14:01:58.927Z,99713.19
2022-11-16T14:04:53.412Z,99731.00
2022-11-16T14:07:32.466Z,99737.50
2022-11-16T14:10:02.004Z,99726.66
2022-11-16T14:12:51.632Z,99712.97
2022-11-16T14:15:24.637Z,99717.03
2022-11-16T14:17:59.466Z,99702.84
2022-11-16T14:20:54.536Z,99711.03
2022-11-16T14:23:44.456Z,99709.19
2022-11-16T14:26:26.425Z,99696.13
2022-11-16T14:29:07.306Z,99685.38
2022-11-16T14:31:54.204Z,99693.72
2022-11-16T14:34:30.134Z,99693.84
2022-11-16T14:37:00.235Z,99694.41
2022-11-16T14:39:41.436Z,99688.63
2022-11-16T14:42:25.867Z,99685.16
2022-11-16T14:45:01.316Z,99677.94
2022-11-16T14:47:35.006Z,99676.53
2022-11-16T14:50:04.409Z,99672.63
2022-11-16T14:52:47.581Z,99678.56
2022-11-16T14:55:24.589Z,99668.25
2022-11-16T14:58:18.132Z,99671.38
2022-11-16T15:01:14.385Z,99664.31
2022-11-16T15:03:53.252Z,99661.88
2022-11-16T15:06:24.751Z,99662.69
2022-11-16T15:08:57.978Z,99651.13
2022-11-16T15:11:49.954Z,99652.31
2022-11-16T15:14:22.102Z,99661.47
2022-11-16T15:16:54.432Z,99655.34
2022-11-16T15:19:24.686Z,99651.41
2022-11-16T15:21:59.560Z,99629.72
2022-11-16T15:24:31.981Z,99620.16
2022-11-16T15:27:06.745Z,99634.56
2022-11-16T15:29:35.651Z,99645.91
2022-11-16T15:32:04.805Z,99636.81
2022-11-16T15:34:33.462Z,99636.22
2022-11-16T15:37:01.955Z,99632.09
2022-11-16T15:39:36.044Z,99622.50
2022-11-16T15:42:07.288Z,99622.66
2022-11-16T15:44:35.960Z,99613.56
2022-11-16T15:47:04.546Z,99611.59
2022-11-16T15:49:38.390Z,99605.16
2022-11-16T15:52:08.001Z,99602.53
2022-11-16T15:54:55.590Z,99597.03
2022-11-16T15:57:24.623Z,99597.84
2022-11-16T15:59:55.617Z,99584.44
2022-11-16T16:02:29.990Z,99581.63
2022-11-16T16:04:58.520Z,99564.47
2022-11-16T16:07:37.914Z,99565.28
2022-11-16T16:10:14.265Z,99557.16
2022-11-16T16:12:54.189Z,99552.22
2022-11-16T16:15:40.121Z,99547.34
2022-11-16T16:18:36.618Z,99547.88
2022-11-16T16:21:05.214Z,99547.91
2022-11-16T16:23:34.107Z,99546.50
2022-11-16T16:26:06.199Z,99549.59
2022-11-16T16:28:34.595Z,99551.31
2022-11-16T16:31:03.216Z,99544.25
2022-11-16T16:33:32.147Z,99547.09
2022-11-16T16:36:01.775Z,99553.19
2022-11-16T16:38:30.163Z,99545.06
2022-11-16T16:41:03.034Z,99554.25
2022-11-16T16:43:32.477Z,99540.97
2022-11-16T16:46:02.725Z,99536.53
2022-11-16T16:48:31.191Z,99537.81
2022-11-16T16:50:59.610Z,99532.72
2022-11-16T16:53:28.218Z,99523.31
2022-11-16T16:55:56.730Z,99529.34
2022-11-16T16:58:25.927Z,99517.63
2022-11-16T17:01:01.066Z,99516.59
2022-11-16T17:03:30.828Z,99512.66
2022-11-16T17:06:01.889Z,99519.38
2022-11-16T17:08:35.276Z,99518.31
2022-11-16T17:11:04.206Z,99508.66
2022-11-16T17:13:32.929Z,99503.84
2022-11-16T17:16:05.510Z,99503.03
2022-11-16T17:18:34.326Z,99505.78
2022-11-16T17:21:08.261Z,99496.50
2022-11-16T17:23:37.896Z,99498.66
2022-11-16T17:26:08.737Z,99497.72
2022-11-16T17:28:37.596Z,99499.53
2022-11-16T17:31:11.346Z,99494.09
2022-11-16T17:33:42.493Z,99489.88
2022-11-16T17:36:12.806Z,99485.91
2022-11-16T17:38:41.729Z,99489.44
2022-11-16T17:41:12.763Z,99481.91
2022-11-16T17:43:42.967Z,99485.69
2022-11-16T17:46:12.825Z,99482.53
2022-11-16T17:48:43.190Z,99473.41
2022-11-16T17:51:13.573Z,99469.19
2022-11-16T17:53:44.282Z,99482.44
2022-11-16T17:56:14.836Z,99475.94
2022-11-16T17:58:45.028Z,99473.16
2022-11-16T18:01:14.335Z,99478.50
2022-11-16T18:03:42.883Z,99470.75
2022-11-16T18:06:13.695Z,99477.28
2022-11-16T18:08:43.601Z,99486.59
2022-11-16T18:11:23.911Z,99485.00
2022-11-16T18:13:57.895Z,99473.16
2022-11-16T18:16:28.519Z,99480.75
2022-11-16T18:19:06.819Z,99481.78
2022-11-16T18:21:42.122Z,99477.75
2022-11-16T18:24:11.472Z,99473.69
2022-11-16T18:26:40.629Z,99467.59
2022-11-16T18:29:12.651Z,99467.09
2022-11-16T18:31:41.364Z,99478.31
2022-11-16T18:34:13.207Z,99465.00
2022-11-16T18:36:41.659Z,99468.75
2022-11-16T18:39:10.143Z,99474.81
2022-11-16T18:41:43.976Z,99467.84
2022-11-16T18:44:13.509Z,99453.16
2022-11-16T18:46:42.658Z,99454.56
2022-11-16T18:49:11.537Z,99448.03
2022-11-16T18:51:39.982Z,99450.47
2022-11-16T18:54:08.719Z,99442.72
2022-11-16T18:56:37.202Z,99441.06
2022-11-16T18:59:05.604Z,99437.09
2022-11-16T19:01:34.341Z,99435.34
2022-11-16T19:04:03.170Z,99425.47
2022-11-16T19:06:32.510Z,99417.75
2022-11-16T19:09:01.048Z,99421.13
2022-11-16T19:11:30.410Z,99426.38
2022-11-16T19:14:07.521Z,99414.47
2022-11-16T19:16:36.158Z,99417.31
2022-11-16T19:19:04.922Z,99407.09
2022-11-16T19:21:33.338Z,99401.88
2022-11-16T19:24:01.795Z,99405.56
2022-11-16T19:26:30.160Z,99391.72
2022-11-16T19:28:58.938Z,99380.78
2022-11-16T19:31:32.548Z,99375.53
2022-11-16T19:34:04.487Z,99368.41
2022-11-16T19:36:35.451Z,99355.34
2022-11-16T19:39:05.935Z,99351.47
2022-11-16T19:41:34.487Z,99342.66
2022-11-16T19:44:02.924Z,99336.59
2022-11-16T19:46:32.641Z,99319.91
2022-11-16T19:49:01.722Z,99319.00
2022-11-16T19:51:32.476Z,99312.25
2022-11-16T19:54:02.412Z,99304.28
2022-11-16T19:56:30.916Z,99298.28
2022-11-16T19:59:00.364Z,99283.03
2022-11-16T20:01:29.373Z,99280.16
2022-11-16T20:04:00.368Z,99277.47
2022-11-16T20:06:34.518Z,99280.78
2022-11-16T20:09:08.819Z,99271.47
2022-11-16T20:11:41.201Z,99273.22
2022-11-16T20:14:10.626Z,99267.06
2022-11-16T20:16:41.017Z,99256.34
2022-11-16T20:19:10.634Z,99259.56
2022-11-16T20:21:41.078Z,99247.59
2022-11-16T20:24:12.446Z,99249.22
2022-11-16T20:26:44.103Z,99245.25
2022-11-16T20:29:17.428Z,99242.47
2022-11-16T20:31:46.463Z,99228.38
2022-11-16T20:34:16.514Z,99229.53
2022-11-16T20:36:47.378Z,99224.69
2022-11-16T20:39:18.711Z,99215.94
2022-11-16T20:41:48.170Z,99217.84
2022-11-16T20:44:20.938Z,99210.06
2022-11-16T20:46:52.521Z,99216.28
2022-11-16T20:49:21.331Z,99210.34
2022-11-16T20:51:51.385Z,99210.81
2022-11-16T20:54:20.099Z,99196.25
2022-11-16T20:56:50.211Z,99197.09
2022-11-16T20:59:19.094Z,99197.09
2022-11-16T21:01:48.710Z,99192.75
2022-11-16T21:04:17.338Z,99191.47
2022-11-16T21:06:45.842Z,99190.44
2022-11-16T21:09:22.500Z,99196.75
2022-11-16T21:12:09.704Z,99180.22
2022-11-16T21:14:38.186Z,99176.09
2022-11-16T21:17:06.665Z,99170.19
2022-11-16T21:19:35.351Z,99166.72
2022-11-16T21:22:03.752Z,99158.19
2022-11-16T21:24:32.368Z,99154.47
2022-11-16T21:27:00.944Z,99146.28
2022-11-16T21:29:30.393Z,99137.38
2022-11-16T21:31:59.348Z,99141.03
2022-11-16T21:34:32.707Z,99120.28
2022-11-16T21:37:04.259Z,99115.53
2022-11-16T21:39:32.698Z,99112.06
2022-11-16T21:42:01.020Z,99107.78
2022-11-16T21:44:41.703Z,99103.00
2022-11-16T21:47:14.022Z,99090.88
2022-11-16T21:50:02.427Z,99089.13
2022-11-16T21:52:30.720Z,99072.59
2022-11-16T21:55:01.978Z,99075.78
2022-11-16T21:57:30.318Z,99060.38
2022-11-16T22:00:00.975Z,99059.31
2022-11-16T22:02:29.381Z,99040.06
2022-11-16T22:05:16.445Z,99028.34
2022-11-16T22:07:44.788Z,99026.50
2022-11-16T22:10:13.231Z,99017.69
2022-11-16T22:12:41.668Z,99013.69
2022-11-16T22:15:11.348Z,98993.06
2022-11-16T22:17:43.998Z,98991.06
2022-11-16T22:20:12.436Z,98976.41
2022-11-16T22:22:40.853Z,98972.75
2022-11-16T22:25:09.772Z,98961.00
2022-11-16T22:27:52.328Z,98953.72
2022-11-16T22:30:26.730Z,98952.00
2022-11-16T22:32:55.182Z,98938.63
2022-11-16T22:35:23.658Z,98916.44
2022-11-16T22:37:52.069Z,98923.25
2022-11-16T22:40:20.429Z,98912.00
2022-11-16T22:42:48.789Z,98890.41
2022-11-16T22:45:18.218Z,98881.88
2022-11-16T22:47:49.612Z,98873.53
2022-11-16T22:50:20.848Z,98866.38
2022-11-16T22:52:49.235Z,98870.50
2022-11-16T22:55:17.566Z,98855.97
2022-11-16T22:57:46.986Z,98840.72
2022-11-16T23:00:15.527Z,98841.31
2022-11-16T23:02:43.899Z,98825.63
2022-11-16T23:05:12.794Z,98835.44
2022-11-16T23:07:43.821Z,98813.41
2022-11-16T23:10:12.254Z,98810.50
2022-11-16T23:13:19.171Z,98806.38
2022-11-16T23:15:50.518Z,98800.44
2022-11-16T23:18:19.591Z,98788.13
2022-11-16T23:21:06.525Z,98795.03
2022-11-16T23:23:53.489Z,98787.06
2022-11-16T23:26:42.080Z,98762.81
2022-11-16T23:29:11.189Z,98761.97
2022-11-16T23:31:39.633Z,98738.41
2022-11-16T23:34:08.035Z,98747.03
2022-11-16T23:36:36.391Z,98733.22
2022-11-16T23:39:04.912Z,98717.63
2022-11-16T23:41:51.655Z,98715.84
2022-11-16T23:44:20.015Z,98706.03
2022-11-16T23:46:48.424Z,98694.97
2022-11-16T23:49:16.919Z,98683.47
2022-11-16T23:51:45.560Z,98652.88
2022-11-16T23:54:13.923Z,98651.63
2022-11-16T23:56:42.393Z,98640.56
2022-11-16T23:59:10.768Z,98644.88
